createdAt,value
2015-07-06T00:00:13.105Z,100780
2015-07-06T00:00:31.339Z,100771
2015-07-06T00:00:49.589Z,100783
2015-07-06T00:01:07.823Z,100765
2015-07-06T00:01:26.060Z,100774
2015-07-06T00:01:44.294Z,100783
2015-07-06T00:02:02.544Z,100783
2015-07-06T00:02:20.781Z,100792
2015-07-06T00:02:39.015Z,100783
2015-07-06T00:02:57.265Z,100786
2015-07-06T00:03:15.499Z,100791
2015-07-06T00:03:33.736Z,100797
2015-07-06T00:03:51.970Z,100805
2015-07-06T00:04:10.220Z,100799
2015-07-06T00:04:28.457Z,100810
2015-07-06T00:04:46.692Z,100807
2015-07-06T00:05:04.942Z,100828
2015-07-06T00:05:23.176Z,100828
2015-07-06T00:05:41.412Z,100836
2015-07-06T00:05:59.677Z,100833
2015-07-06T00:06:17.896Z,100853
2015-07-06T00:06:36.133Z,100864
2015-07-06T00:06:54.383Z,100864
2015-07-06T00:07:12.618Z,100872
2015-07-06T00:07:30.852Z,100878
2015-07-06T00:07:49.104Z,100884
2015-07-06T00:08:07.338Z,100884
2015-07-06T00:08:25.573Z,100895
2015-07-06T00:08:43.809Z,100887
2015-07-06T00:09:02.044Z,100901
2015-07-06T00:09:20.278Z,100892
2015-07-06T00:09:38.512Z,100903
2015-07-06T00:09:56.748Z,100892
2015-07-06T00:10:14.982Z,100880
2015-07-06T00:10:33.232Z,100889
2015-07-06T00:10:51.469Z,100883
2015-07-06T00:11:09.704Z,100897
2015-07-06T00:11:27.938Z,100892
2015-07-06T00:11:46.173Z,100898
2015-07-06T00:12:04.408Z,100909
2015-07-06T00:12:22.658Z,100915
2015-07-06T00:12:40.892Z,100912
2015-07-06T00:12:59.129Z,100929
2015-07-06T00:13:17.363Z,100929
2015-07-06T00:13:35.613Z,100932
2015-07-06T00:13:53.847Z,100926
2015-07-06T00:14:12.084Z,100923
2015-07-06T00:14:30.334Z,100926
2015-07-06T00:14:48.568Z,100929
2015-07-06T00:15:06.805Z,100926
2015-07-06T00:15:25.039Z,100935
2015-07-06T00:15:43.289Z,100923
2015-07-06T00:16:01.523Z,100923
2015-07-06T00:16:19.760Z,100920
2015-07-06T00:16:38.010Z,100935
2015-07-06T00:16:56.260Z,100917
2015-07-06T00:17:14.497Z,100920
2015-07-06T00:17:32.731Z,100920
2015-07-06T00:17:50.981Z,100912
2015-07-06T00:18:09.216Z,100912
2015-07-06T00:18:27.452Z,100909
2015-07-06T00:18:45.687Z,100923
2015-07-06T00:19:03.921Z,100920
2015-07-06T00:19:22.173Z,100923
2015-07-06T00:19:40.423Z,100926
2015-07-06T00:19:58.642Z,100926
2015-07-06T00:20:16.876Z,100923
2015-07-06T00:20:35.112Z,100929
2015-07-06T00:20:53.362Z,100937
2015-07-06T00:21:11.597Z,100940
2015-07-06T00:21:29.833Z,100929
2015-07-06T00:21:48.068Z,100934
2015-07-06T00:22:06.302Z,100926
2015-07-06T00:22:24.536Z,100920
2015-07-06T00:22:42.773Z,100923
2015-07-06T00:23:01.023Z,100920
2015-07-06T00:23:19.257Z,100914
2015-07-06T00:23:37.493Z,100917
2015-07-06T00:23:55.743Z,100915
2015-07-06T00:24:13.978Z,100906
2015-07-06T00:24:32.212Z,100906
2015-07-06T00:24:50.449Z,100906
2015-07-06T00:25:08.714Z,100917
2015-07-06T00:25:26.933Z,100912
2015-07-06T00:25:45.169Z,100909
2015-07-06T00:26:03.419Z,100915
2015-07-06T00:26:21.654Z,100912
2015-07-06T00:26:39.888Z,100926
2015-07-06T00:26:58.124Z,100923
2015-07-06T00:27:16.359Z,100932
2015-07-06T00:27:34.593Z,100917
2015-07-06T00:27:52.845Z,100914
2015-07-06T00:28:11.080Z,100917
2015-07-06T00:28:29.314Z,100917
2015-07-06T00:28:47.548Z,100914
2015-07-06T00:29:05.800Z,100920
2015-07-06T00:29:24.035Z,100915
2015-07-06T00:29:42.269Z,100912
2015-07-06T00:30:00.506Z,100924
2015-07-06T00:30:18.741Z,100926
2015-07-06T00:30:36.975Z,100921
2015-07-06T00:30:55.225Z,100921
2015-07-06T00:31:13.461Z,100921
2015-07-06T00:31:31.695Z,100918
2015-07-06T00:31:49.929Z,100927
2015-07-06T00:32:08.182Z,100921
2015-07-06T00:32:26.417Z,100927
2015-07-06T00:32:44.667Z,100921
2015-07-06T00:33:02.901Z,100921
2015-07-06T00:33:21.136Z,100921
2015-07-06T00:33:39.386Z,100929
2015-07-06T00:33:57.621Z,100932
2015-07-06T00:34:15.858Z,100924
2015-07-06T00:34:34.093Z,100929
2015-07-06T00:34:52.327Z,100924
2015-07-06T00:35:10.577Z,100929
2015-07-06T00:35:28.812Z,100920
2015-07-06T00:35:47.047Z,100920
2015-07-06T00:36:05.281Z,100912
2015-07-06T00:36:23.518Z,100932
2015-07-06T00:36:41.768Z,100921
2015-07-06T00:37:00.003Z,100918
2015-07-06T00:37:18.237Z,100918
2015-07-06T00:37:36.474Z,100918
2015-07-06T00:37:54.708Z,100915
2015-07-06T00:38:12.942Z,100926
2015-07-06T00:38:31.194Z,100918
2015-07-06T00:38:49.429Z,100906
2015-07-06T00:39:07.663Z,100918
2015-07-06T00:39:25.897Z,100924
2015-07-06T00:39:44.133Z,100915
2015-07-06T00:40:02.383Z,100903
2015-07-06T00:40:20.633Z,100900
2015-07-06T00:40:38.854Z,100906
2015-07-06T00:40:57.088Z,100903
2015-07-06T00:41:15.338Z,100903
2015-07-06T00:41:33.572Z,100909
2015-07-06T00:41:51.810Z,100909
2015-07-06T00:42:10.044Z,100907
2015-07-06T00:42:28.278Z,100918
2015-07-06T00:42:46.530Z,100915
2015-07-06T00:43:04.765Z,100909
2015-07-06T00:43:22.999Z,100910
2015-07-06T00:43:41.234Z,100912
2015-07-06T00:43:59.486Z,100912
2015-07-06T00:44:17.720Z,100904
2015-07-06T00:44:35.954Z,100903
2015-07-06T00:44:54.206Z,100918
2015-07-06T00:45:12.441Z,100909
2015-07-06T00:45:30.675Z,100903
2015-07-06T00:45:48.925Z,100915
2015-07-06T00:46:07.161Z,100917
2015-07-06T00:46:25.396Z,100917
2015-07-06T00:46:43.646Z,100923
2015-07-06T00:47:01.882Z,100915
2015-07-06T00:47:20.117Z,100918
2015-07-06T00:47:38.351Z,100912
2015-07-06T00:47:56.585Z,100918
2015-07-06T00:48:14.837Z,100924
2015-07-06T00:48:33.072Z,100918
2015-07-06T00:48:51.306Z,100927
2015-07-06T00:49:09.543Z,100921
2015-07-06T00:49:27.778Z,100921
2015-07-06T00:49:46.028Z,100915
2015-07-06T00:50:04.262Z,100921
2015-07-06T00:50:22.498Z,100918
2015-07-06T00:50:40.732Z,100924
2015-07-06T00:50:58.966Z,100909
2015-07-06T00:51:17.219Z,100915
2015-07-06T00:51:35.454Z,100915
2015-07-06T00:51:53.688Z,100915
2015-07-06T00:52:11.922Z,100909
2015-07-06T00:52:30.158Z,100917
2015-07-06T00:52:48.392Z,100909
2015-07-06T00:53:06.642Z,100912
2015-07-06T00:53:24.879Z,100915
2015-07-06T00:53:43.113Z,100912
2015-07-06T00:54:01.347Z,100915
2015-07-06T00:54:19.582Z,100917
2015-07-06T00:54:37.818Z,100909
2015-07-06T00:54:56.068Z,100923
2015-07-06T00:55:14.302Z,100917
2015-07-06T00:55:32.539Z,100917
2015-07-06T00:55:50.773Z,100917
2015-07-06T00:56:09.023Z,100932
2015-07-06T00:56:27.258Z,100923
2015-07-06T00:56:45.494Z,100926
2015-07-06T00:57:03.728Z,100934
2015-07-06T00:57:21.963Z,100929
2015-07-06T00:57:40.215Z,100946
2015-07-06T00:57:58.449Z,100937
2015-07-06T00:58:16.683Z,100952
2015-07-06T00:58:34.918Z,100940
2015-07-06T00:58:53.170Z,100943
2015-07-06T00:59:11.404Z,100955
2015-07-06T00:59:29.639Z,100955
2015-07-06T00:59:47.891Z,100943
2015-07-06T01:00:06.125Z,100952
2015-07-06T01:00:24.359Z,100958
2015-07-06T01:00:42.609Z,100949
2015-07-06T01:01:00.861Z,100964
2015-07-06T01:01:19.080Z,100961
2015-07-06T01:01:37.314Z,100961
2015-07-06T01:01:55.567Z,100966
2015-07-06T01:02:13.802Z,100964
2015-07-06T01:02:32.036Z,100958
2015-07-06T01:02:50.271Z,100961
2015-07-06T01:03:08.506Z,100949
2015-07-06T01:03:26.756Z,100958
2015-07-06T01:03:44.990Z,100961
2015-07-06T01:04:03.227Z,100949
2015-07-06T01:04:21.461Z,100958
2015-07-06T01:04:39.695Z,100958
2015-07-06T01:04:57.930Z,100961
2015-07-06T01:05:16.183Z,100952
2015-07-06T01:05:34.417Z,100952
2015-07-06T01:05:52.652Z,100955
2015-07-06T01:06:10.888Z,100955
2015-07-06T01:06:29.122Z,100943
2015-07-06T01:06:47.372Z,100955
2015-07-06T01:07:05.607Z,100949
2015-07-06T01:07:23.843Z,100946
2015-07-06T01:07:42.077Z,100961
2015-07-06T01:08:00.312Z,100946
2015-07-06T01:08:18.548Z,100944
2015-07-06T01:08:36.783Z,100946
2015-07-06T01:08:55.017Z,100946
2015-07-06T01:09:13.283Z,100964
2015-07-06T01:09:31.519Z,100952
2015-07-06T01:09:49.753Z,100946
2015-07-06T01:10:08.003Z,100952
2015-07-06T01:10:26.240Z,100952
2015-07-06T01:10:44.474Z,100946
2015-07-06T01:11:02.708Z,100955
2015-07-06T01:11:20.958Z,100958
2015-07-06T01:11:39.195Z,100958
2015-07-06T01:11:57.445Z,100958
2015-07-06T01:12:15.679Z,100952
2015-07-06T01:12:33.931Z,100955
2015-07-06T01:12:52.166Z,100961
2015-07-06T01:13:10.400Z,100955
2015-07-06T01:13:28.634Z,100946
2015-07-06T01:13:46.886Z,100943
2015-07-06T01:14:05.105Z,100943
2015-07-06T01:14:23.355Z,100949
2015-07-06T01:14:41.592Z,100949
2015-07-06T01:14:59.827Z,100946
2015-07-06T01:15:18.061Z,100937
2015-07-06T01:15:36.296Z,100940
2015-07-06T01:15:54.531Z,100932
2015-07-06T01:16:12.765Z,100938
2015-07-06T01:16:31.015Z,100929
2015-07-06T01:16:49.252Z,100944
2015-07-06T01:17:07.486Z,100938
2015-07-06T01:17:25.720Z,100938
2015-07-06T01:17:43.970Z,100932
2015-07-06T01:18:02.207Z,100929
2015-07-06T01:18:20.441Z,100941
2015-07-06T01:18:38.676Z,100935
2015-07-06T01:18:56.928Z,100944
2015-07-06T01:19:15.162Z,100932
2015-07-06T01:19:33.396Z,100938
2015-07-06T01:19:51.631Z,100926
2015-07-06T01:20:09.867Z,100935
2015-07-06T01:20:28.117Z,100938
2015-07-06T01:20:46.351Z,100929
2015-07-06T01:21:04.588Z,100932
2015-07-06T01:21:22.822Z,100940
2015-07-06T01:21:41.057Z,100938
2015-07-06T01:21:59.307Z,100938
2015-07-06T01:22:17.544Z,100941
2015-07-06T01:22:35.778Z,100946
2015-07-06T01:22:54.013Z,100938
2015-07-06T01:23:12.264Z,100952
2015-07-06T01:23:30.498Z,100932
2015-07-06T01:23:48.732Z,100940
2015-07-06T01:24:06.967Z,100938
2015-07-06T01:24:25.203Z,100937
2015-07-06T01:24:43.453Z,100943
2015-07-06T01:25:01.688Z,100940
2015-07-06T01:25:19.925Z,100949
2015-07-06T01:25:38.175Z,100935
2015-07-06T01:25:56.409Z,100941
2015-07-06T01:26:14.644Z,100941
2015-07-06T01:26:32.895Z,100935
2015-07-06T01:26:51.129Z,100946
2015-07-06T01:27:09.363Z,100949
2015-07-06T01:27:27.600Z,100946
2015-07-06T01:27:45.850Z,100952
2015-07-06T01:28:04.084Z,100935
2015-07-06T01:28:22.319Z,100938
2015-07-06T01:28:40.556Z,100947
2015-07-06T01:28:58.790Z,100947
2015-07-06T01:29:17.025Z,100932
2015-07-06T01:29:35.260Z,100947
2015-07-06T01:29:53.510Z,100947
2015-07-06T01:30:11.744Z,100950
2015-07-06T01:30:29.979Z,100950
2015-07-06T01:30:48.216Z,100932
2015-07-06T01:31:06.451Z,100941
2015-07-06T01:31:24.685Z,100944
2015-07-06T01:31:42.921Z,100944
2015-07-06T01:32:01.156Z,100949
2015-07-06T01:32:19.406Z,100944
2015-07-06T01:32:37.640Z,100938
2015-07-06T01:32:55.875Z,100938
2015-07-06T01:33:14.110Z,100955
2015-07-06T01:33:32.344Z,100958
2015-07-06T01:33:50.597Z,100946
2015-07-06T01:34:08.832Z,100941
2015-07-06T01:34:27.066Z,100952
2015-07-06T01:34:45.300Z,100949
2015-07-06T01:35:03.551Z,100955
2015-07-06T01:35:21.786Z,100946
2015-07-06T01:35:40.020Z,100958
2015-07-06T01:35:58.273Z,100949
2015-07-06T01:36:16.507Z,100949
2015-07-06T01:36:34.742Z,100949
2015-07-06T01:36:52.976Z,100952
2015-07-06T01:37:11.213Z,100940
2015-07-06T01:37:29.463Z,100940
2015-07-06T01:37:47.697Z,100943
2015-07-06T01:38:05.933Z,100946
2015-07-06T01:38:24.183Z,100946
2015-07-06T01:38:42.418Z,100941
2015-07-06T01:39:00.652Z,100947
2015-07-06T01:39:18.888Z,100950
2015-07-06T01:39:37.123Z,100944
2015-07-06T01:39:55.357Z,100947
2015-07-06T01:40:13.609Z,100947
2015-07-06T01:40:31.844Z,100953
2015-07-06T01:40:50.078Z,100944
2015-07-06T01:41:08.312Z,100949
2015-07-06T01:41:26.549Z,100947
2015-07-06T01:41:44.783Z,100944
2015-07-06T01:42:03.017Z,100944
2015-07-06T01:42:21.255Z,100947
2015-07-06T01:42:39.505Z,100947
2015-07-06T01:42:57.739Z,100952
2015-07-06T01:43:15.974Z,100941
2015-07-06T01:43:34.209Z,100941
2015-07-06T01:43:52.459Z,100944
2015-07-06T01:44:10.693Z,100935
2015-07-06T01:44:28.930Z,100938
2015-07-06T01:44:47.164Z,100935
2015-07-06T01:45:05.398Z,100938
2015-07-06T01:45:23.633Z,100929
2015-07-06T01:45:41.869Z,100932
2015-07-06T01:46:00.104Z,100932
2015-07-06T01:46:18.354Z,100938
2015-07-06T01:46:36.590Z,100932
2015-07-06T01:46:54.824Z,100938
2015-07-06T01:47:13.059Z,100932
2015-07-06T01:47:31.293Z,100935
2015-07-06T01:47:49.530Z,100935
2015-07-06T01:48:07.765Z,100927
2015-07-06T01:48:25.999Z,100935
2015-07-06T01:48:44.251Z,100930
2015-07-06T01:49:02.486Z,100935
2015-07-06T01:49:20.720Z,100930
2015-07-06T01:49:38.954Z,100930
2015-07-06T01:49:57.205Z,100927
2015-07-06T01:50:15.440Z,100926
2015-07-06T01:50:33.674Z,100926
2015-07-06T01:50:51.927Z,100932
2015-07-06T01:51:10.161Z,100926
2015-07-06T01:51:28.396Z,100923
2015-07-06T01:51:46.630Z,100921
2015-07-06T01:52:04.867Z,100929
2015-07-06T01:52:23.101Z,100921
2015-07-06T01:52:41.351Z,100918
2015-07-06T01:52:59.587Z,100927
2015-07-06T01:53:17.822Z,100918
2015-07-06T01:53:36.056Z,100915
2015-07-06T01:53:54.290Z,100912
2015-07-06T01:54:12.527Z,100910
2015-07-06T01:54:30.761Z,100918
2015-07-06T01:54:48.996Z,100916
2015-07-06T01:55:07.232Z,100916
2015-07-06T01:55:25.466Z,100910
2015-07-06T01:55:43.701Z,100922
2015-07-06T01:56:01.935Z,100924
2015-07-06T01:56:20.171Z,100919
2015-07-06T01:56:38.421Z,100916
2015-07-06T01:56:56.656Z,100916
2015-07-06T01:57:14.892Z,100924
2015-07-06T01:57:33.127Z,100918
2015-07-06T01:57:51.361Z,100912
2015-07-06T01:58:09.595Z,100915
2015-07-06T01:58:27.831Z,100929
2015-07-06T01:58:46.081Z,100921
2015-07-06T01:59:04.315Z,100909
2015-07-06T01:59:22.568Z,100923
2015-07-06T01:59:40.802Z,100920
2015-07-06T01:59:59.037Z,100926
2015-07-06T02:00:17.287Z,100917
2015-07-06T02:00:35.523Z,100915
2015-07-06T02:00:53.758Z,100915
2015-07-06T02:01:11.992Z,100912
2015-07-06T02:01:30.228Z,100909
2015-07-06T02:01:48.478Z,100923
2015-07-06T02:02:06.713Z,100915
2015-07-06T02:02:24.963Z,100918
2015-07-06T02:02:43.199Z,100921
2015-07-06T02:03:01.433Z,100923
2015-07-06T02:03:19.683Z,100920
2015-07-06T02:03:37.920Z,100929
2015-07-06T02:03:56.154Z,100915
2015-07-06T02:04:14.389Z,100923
2015-07-06T02:04:32.639Z,100912
2015-07-06T02:04:50.875Z,100915
2015-07-06T02:05:09.109Z,100926
2015-07-06T02:05:27.344Z,100918
2015-07-06T02:05:45.580Z,100923
2015-07-06T02:06:03.814Z,100921
2015-07-06T02:06:22.049Z,100921
2015-07-06T02:06:40.299Z,100924
2015-07-06T02:06:58.536Z,100929
2015-07-06T02:07:16.771Z,100924
2015-07-06T02:07:35.005Z,100926
2015-07-06T02:07:53.256Z,100924
2015-07-06T02:08:11.490Z,100929
2015-07-06T02:08:29.725Z,100932
2015-07-06T02:08:47.959Z,100932
2015-07-06T02:09:06.195Z,100935
2015-07-06T02:09:24.430Z,100930
2015-07-06T02:09:42.664Z,100930
2015-07-06T02:10:00.917Z,100930
2015-07-06T02:10:19.152Z,100924
2015-07-06T02:10:37.386Z,100924
2015-07-06T02:10:55.620Z,100932
2015-07-06T02:11:13.856Z,100935
2015-07-06T02:11:32.106Z,100932
2015-07-06T02:11:50.340Z,100938
2015-07-06T02:12:08.592Z,100936
2015-07-06T02:12:26.826Z,100938
2015-07-06T02:12:45.076Z,100944
2015-07-06T02:13:03.311Z,100932
2015-07-06T02:13:21.548Z,100938
2015-07-06T02:13:39.783Z,100938
2015-07-06T02:13:58.033Z,100944
2015-07-06T02:14:16.268Z,100932
2015-07-06T02:14:34.502Z,100926
2015-07-06T02:14:52.737Z,100926
2015-07-06T02:15:10.987Z,100941
2015-07-06T02:15:29.224Z,100932
2015-07-06T02:15:47.458Z,100921
2015-07-06T02:16:05.693Z,100921
2015-07-06T02:16:23.929Z,100921
2015-07-06T02:16:42.179Z,100924
2015-07-06T02:17:00.414Z,100929
2015-07-06T02:17:18.648Z,100912
2015-07-06T02:17:36.884Z,100912
2015-07-06T02:17:55.134Z,100912
2015-07-06T02:18:13.369Z,100906
2015-07-06T02:18:31.605Z,100897
2015-07-06T02:18:49.839Z,100903
2015-07-06T02:19:08.074Z,100892
2015-07-06T02:19:26.324Z,100892
2015-07-06T02:19:44.560Z,100886
2015-07-06T02:20:02.795Z,100898
2015-07-06T02:20:21.029Z,100886
2015-07-06T02:20:39.265Z,100898
2015-07-06T02:20:57.515Z,100904
2015-07-06T02:21:15.750Z,100898
2015-07-06T02:21:33.984Z,100895
2015-07-06T02:21:52.220Z,100892
2015-07-06T02:22:10.486Z,100892
2015-07-06T02:22:28.705Z,100895
2015-07-06T02:22:46.941Z,100895
2015-07-06T02:23:05.176Z,100871
2015-07-06T02:23:23.410Z,100889
2015-07-06T02:23:41.644Z,100888
2015-07-06T02:23:59.895Z,100894
2015-07-06T02:24:18.130Z,100883
2015-07-06T02:24:36.364Z,100880
2015-07-06T02:24:54.601Z,100886
2015-07-06T02:25:12.836Z,100886
2015-07-06T02:25:31.070Z,100889
2015-07-06T02:25:49.305Z,100897
2015-07-06T02:26:07.557Z,100888
2015-07-06T02:26:25.791Z,100886
2015-07-06T02:26:44.025Z,100894
2015-07-06T02:27:02.277Z,100891
2015-07-06T02:27:20.512Z,100888
2015-07-06T02:27:38.746Z,100885
2015-07-06T02:27:56.996Z,100888
2015-07-06T02:28:15.232Z,100888
2015-07-06T02:28:33.467Z,100897
2015-07-06T02:28:51.701Z,100902
2015-07-06T02:29:09.938Z,100897
2015-07-06T02:29:28.172Z,100894
2015-07-06T02:29:46.422Z,100894
2015-07-06T02:30:04.656Z,100897
2015-07-06T02:30:22.908Z,100889
2015-07-06T02:30:41.158Z,100889
2015-07-06T02:30:59.393Z,100895
2015-07-06T02:31:17.629Z,100895
2015-07-06T02:31:35.863Z,100886
2015-07-06T02:31:54.098Z,100892
2015-07-06T02:32:12.348Z,100897
2015-07-06T02:32:30.585Z,100895
2015-07-06T02:32:48.820Z,100900
2015-07-06T02:33:07.054Z,100892
2015-07-06T02:33:25.305Z,100892
2015-07-06T02:33:43.539Z,100903
2015-07-06T02:34:01.774Z,100883
2015-07-06T02:34:20.008Z,100886
2015-07-06T02:34:38.244Z,100886
2015-07-06T02:34:56.494Z,100892
2015-07-06T02:35:14.729Z,100880
2015-07-06T02:35:32.966Z,100880
2015-07-06T02:35:51.201Z,100878
2015-07-06T02:36:09.435Z,100880
2015-07-06T02:36:27.669Z,100878
2015-07-06T02:36:45.920Z,100889
2015-07-06T02:37:04.155Z,100889
2015-07-06T02:37:22.389Z,100880
2015-07-06T02:37:40.626Z,100874
2015-07-06T02:37:58.876Z,100895
2015-07-06T02:38:17.111Z,100886
2015-07-06T02:38:35.345Z,100886
2015-07-06T02:38:53.597Z,100892
2015-07-06T02:39:11.832Z,100886
2015-07-06T02:39:30.066Z,100889
2015-07-06T02:39:48.302Z,100886
2015-07-06T02:40:06.537Z,100900
2015-07-06T02:40:24.771Z,100880
2015-07-06T02:40:43.021Z,100880
2015-07-06T02:41:01.256Z,100892
2015-07-06T02:41:19.491Z,100886
2015-07-06T02:41:37.725Z,100895
2015-07-06T02:41:55.978Z,100875
2015-07-06T02:42:14.213Z,100883
2015-07-06T02:42:32.447Z,100883
2015-07-06T02:42:50.681Z,100878
2015-07-06T02:43:08.932Z,100875
2015-07-06T02:43:27.167Z,100869
2015-07-06T02:43:45.401Z,100875
2015-07-06T02:44:03.638Z,100881
2015-07-06T02:44:21.857Z,100881
2015-07-06T02:44:40.107Z,100872
2015-07-06T02:44:58.342Z,100881
2015-07-06T02:45:16.578Z,100869
2015-07-06T02:45:34.812Z,100872
2015-07-06T02:45:53.062Z,100872
2015-07-06T02:46:11.298Z,100887
2015-07-06T02:46:29.532Z,100863
2015-07-06T02:46:47.766Z,100863
2015-07-06T02:47:06.001Z,100866
2015-07-06T02:47:24.238Z,100852
2015-07-06T02:47:42.473Z,100857
2015-07-06T02:48:00.707Z,100860
2015-07-06T02:48:18.959Z,100845
2015-07-06T02:48:37.193Z,100846
2015-07-06T02:48:55.428Z,100857
2015-07-06T02:49:13.678Z,100849
2015-07-06T02:49:31.914Z,100863
2015-07-06T02:49:50.148Z,100844
2015-07-06T02:50:08.383Z,100838
2015-07-06T02:50:26.635Z,100849
2015-07-06T02:50:44.869Z,100832
2015-07-06T02:51:03.104Z,100821
2015-07-06T02:51:21.354Z,100827
2015-07-06T02:51:39.590Z,100824
2015-07-06T02:51:57.824Z,100818
2015-07-06T02:52:16.059Z,100821
2015-07-06T02:52:34.295Z,100827
2015-07-06T02:52:52.545Z,100807
2015-07-06T02:53:10.779Z,100813
2015-07-06T02:53:29.029Z,100804
2015-07-06T02:53:47.266Z,100798
2015-07-06T02:54:05.516Z,100813
2015-07-06T02:54:23.766Z,100813
2015-07-06T02:54:42.018Z,100798
2015-07-06T02:55:00.252Z,100801
2015-07-06T02:55:18.487Z,100798
2015-07-06T02:55:36.721Z,100798
2015-07-06T02:55:54.973Z,100797
2015-07-06T02:56:13.207Z,100797
2015-07-06T02:56:31.442Z,100785
2015-07-06T02:56:49.694Z,100785
2015-07-06T02:57:07.928Z,100785
2015-07-06T02:57:26.162Z,100791
2015-07-06T02:57:44.397Z,100785
2015-07-06T02:58:02.633Z,100788
2015-07-06T02:58:20.883Z,100774
2015-07-06T02:58:39.118Z,100777
2015-07-06T02:58:57.354Z,100776
2015-07-06T02:59:15.604Z,100765
2015-07-06T02:59:33.838Z,100782
2015-07-06T02:59:52.088Z,100785
2015-07-06T03:00:10.325Z,100785
2015-07-06T03:00:28.559Z,100788
2015-07-06T03:00:46.809Z,100791
2015-07-06T03:01:05.046Z,100782
2015-07-06T03:01:23.296Z,100794
2015-07-06T03:01:41.531Z,100794
2015-07-06T03:01:59.765Z,100801
2015-07-06T03:02:18.002Z,100813
2015-07-06T03:02:36.252Z,100816
2015-07-06T03:02:54.486Z,100824
2015-07-06T03:03:12.722Z,100844
2015-07-06T03:03:30.957Z,100855
2015-07-06T03:03:49.191Z,100852
2015-07-06T03:04:07.425Z,100857
2015-07-06T03:04:25.676Z,100872
2015-07-06T03:04:43.911Z,100877
2015-07-06T03:05:02.145Z,100889
2015-07-06T03:05:20.398Z,100883
2015-07-06T03:05:38.633Z,100897
2015-07-06T03:05:56.867Z,100900
2015-07-06T03:06:15.101Z,100894
2015-07-06T03:06:33.337Z,100897
2015-07-06T03:06:51.587Z,100897
2015-07-06T03:07:09.821Z,100894
2015-07-06T03:07:28.074Z,100889
2015-07-06T03:07:46.308Z,100891
2015-07-06T03:08:04.543Z,100900
2015-07-06T03:08:22.793Z,100894
2015-07-06T03:08:41.029Z,100906
2015-07-06T03:08:59.279Z,100906
2015-07-06T03:09:17.514Z,100911
2015-07-06T03:09:35.750Z,100911
2015-07-06T03:09:53.984Z,100911
2015-07-06T03:10:12.250Z,100923
2015-07-06T03:10:30.469Z,100920
2015-07-06T03:10:48.705Z,100914
2015-07-06T03:11:06.939Z,100923
2015-07-06T03:11:25.174Z,100923
2015-07-06T03:11:43.410Z,100923
2015-07-06T03:12:01.660Z,100931
2015-07-06T03:12:19.895Z,100928
2015-07-06T03:12:38.129Z,100928
2015-07-06T03:12:56.365Z,100940
2015-07-06T03:13:14.600Z,100940
2015-07-06T03:13:32.850Z,100937
2015-07-06T03:13:51.086Z,100934
2015-07-06T03:14:09.320Z,100934
2015-07-06T03:14:27.555Z,100940
2015-07-06T03:14:45.805Z,100940
2015-07-06T03:15:04.041Z,100937
2015-07-06T03:15:22.291Z,100943
2015-07-06T03:15:40.526Z,100940
2015-07-06T03:15:58.778Z,100940
2015-07-06T03:16:16.996Z,100943
2015-07-06T03:16:35.246Z,100946
2015-07-06T03:16:53.481Z,100937
2015-07-06T03:17:11.717Z,100937
2015-07-06T03:17:29.967Z,100934
2015-07-06T03:17:48.201Z,100940
2015-07-06T03:18:06.438Z,100934
2015-07-06T03:18:24.688Z,100926
2015-07-06T03:18:42.922Z,100926
2015-07-06T03:19:01.157Z,100923
2015-07-06T03:19:19.409Z,100925
2015-07-06T03:19:37.643Z,100917
2015-07-06T03:19:55.877Z,100917
2015-07-06T03:20:14.129Z,100925
2015-07-06T03:20:32.364Z,100920
2015-07-06T03:20:50.598Z,100911
2015-07-06T03:21:08.848Z,100911
2015-07-06T03:21:27.100Z,100905
2015-07-06T03:21:45.319Z,100911
2015-07-06T03:22:03.553Z,100911
2015-07-06T03:22:21.805Z,100905
2015-07-06T03:22:40.040Z,100911
2015-07-06T03:22:58.274Z,100905
2015-07-06T03:23:16.508Z,100911
2015-07-06T03:23:34.745Z,100899
2015-07-06T03:23:52.995Z,100902
2015-07-06T03:24:11.229Z,100893
2015-07-06T03:24:29.481Z,100908
2015-07-06T03:24:47.715Z,100893
2015-07-06T03:25:05.950Z,100894
2015-07-06T03:25:24.184Z,100888
2015-07-06T03:25:42.422Z,100896
2015-07-06T03:26:00.672Z,100893
2015-07-06T03:26:18.906Z,100896
2015-07-06T03:26:37.157Z,100896
2015-07-06T03:26:55.391Z,100899
2015-07-06T03:27:13.626Z,100902
2015-07-06T03:27:31.860Z,100899
2015-07-06T03:27:50.113Z,100902
2015-07-06T03:28:08.347Z,100911
2015-07-06T03:28:26.582Z,100902
2015-07-06T03:28:44.817Z,100902
2015-07-06T03:29:03.067Z,100893
2015-07-06T03:29:21.302Z,100902
2015-07-06T03:29:39.552Z,100908
2015-07-06T03:29:57.773Z,100911
2015-07-06T03:30:16.023Z,100916
2015-07-06T03:30:34.258Z,100902
2015-07-06T03:30:52.494Z,100911
2015-07-06T03:31:10.744Z,100916
2015-07-06T03:31:28.978Z,100919
2015-07-06T03:31:47.213Z,100925
2015-07-06T03:32:05.449Z,100928
2015-07-06T03:32:23.699Z,100942
2015-07-06T03:32:41.934Z,100931
2015-07-06T03:33:00.170Z,100942
2015-07-06T03:33:18.404Z,100945
2015-07-06T03:33:36.639Z,100951
2015-07-06T03:33:54.873Z,100951
2015-07-06T03:34:13.125Z,100937
2015-07-06T03:34:31.359Z,100940
2015-07-06T03:34:49.594Z,100948
2015-07-06T03:35:07.846Z,100937
2015-07-06T03:35:26.080Z,100940
2015-07-06T03:35:44.315Z,100940
2015-07-06T03:36:02.549Z,100934
2015-07-06T03:36:20.785Z,100937
2015-07-06T03:36:39.035Z,100928
2015-07-06T03:36:57.270Z,100928
2015-07-06T03:37:15.506Z,100934
2015-07-06T03:37:33.740Z,100919
2015-07-06T03:37:51.975Z,100934
2015-07-06T03:38:10.225Z,100931
2015-07-06T03:38:28.461Z,100937
2015-07-06T03:38:46.711Z,100931
2015-07-06T03:39:04.946Z,100931
2015-07-06T03:39:23.182Z,100937
2015-07-06T03:39:41.416Z,100937
2015-07-06T03:39:59.666Z,100934
2015-07-06T03:40:17.901Z,100937
2015-07-06T03:40:36.137Z,100934
2015-07-06T03:40:54.371Z,100948
2015-07-06T03:41:12.606Z,100948
2015-07-06T03:41:30.858Z,100942
2015-07-06T03:41:49.092Z,100942
2015-07-06T03:42:07.327Z,100934
2015-07-06T03:42:25.561Z,100940
2015-07-06T03:42:43.797Z,100942
2015-07-06T03:43:02.032Z,100934
2015-07-06T03:43:20.282Z,100943
2015-07-06T03:43:38.518Z,100940
2015-07-06T03:43:56.752Z,100943
2015-07-06T03:44:14.987Z,100940
2015-07-06T03:44:33.237Z,100939
2015-07-06T03:44:51.473Z,100931
2015-07-06T03:45:09.708Z,100940
2015-07-06T03:45:27.942Z,100943
2015-07-06T03:45:46.194Z,100931
2015-07-06T03:46:04.428Z,100942
2015-07-06T03:46:22.663Z,100948
2015-07-06T03:46:40.897Z,100934
2015-07-06T03:46:59.149Z,100945
2015-07-06T03:47:17.383Z,100951
2015-07-06T03:47:35.618Z,100945